Time;durP1;ratioP1;P1;durP2;ratioP2;P2;SDS_P1;SDS_P2;PMS_P1;PMS_P2;Temp;Humidity;BMP_temperature;BMP_pressure;BME280_temperature;BME280_humidity;BME280_pressure;Samples;Min_cycle;Max_cycle;Signal;HPM_P1;HPM_P2
2023/05/29 00:01:45;;;;;;;18.95;3.88;;;9.30;99.90;;;;;;4991186;28;20136;-80
2023/05/29 00:04:12;;;;;;;17.98;3.80;;;9.20;99.90;;;;;;4988864;28;20038;-80
2023/05/29 00:06:38;;;;;;;20.25;3.90;;;9.20;99.90;;;;;;4981379;28;20120;-79
2023/05/29 00:09:04;;;;;;;24.40;4.05;;;9.20;99.90;;;;;;4973109;28;20045;-79
2023/05/29 00:11:30;;;;;;;20.85;4.22;;;9.20;99.90;;;;;;5010105;28;20038;-80
2023/05/29 00:13:56;;;;;;;19.60;4.03;;;9.10;99.90;;;;;;4990061;28;20531;-80
2023/05/29 00:16:23;;;;;;;19.25;3.78;;;9.10;99.90;;;;;;4988609;28;20072;-80
2023/05/29 00:18:49;;;;;;;21.13;4.32;;;9.10;99.90;;;;;;4990849;28;20260;-79
2023/05/29 00:21:16;;;;;;;16.10;3.65;;;9.00;99.90;;;;;;4995637;28;20523;-80
2023/05/29 00:23:42;;;;;;;18.08;4.57;;;9.00;99.90;;;;;;4994309;28;20049;-79
2023/05/29 00:26:08;;;;;;;19.98;4.03;;;9.00;99.90;;;;;;5002302;28;20428;-80
2023/05/29 00:28:36;;;;;;;18.85;4.07;;;8.90;99.90;;;;;;4999998;28;20034;-79
2023/05/29 00:31:02;;;;;;;19.08;4.25;;;8.90;99.90;;;;;;4982877;28;20116;-79
2023/05/29 00:33:28;;;;;;;16.23;3.50;;;8.90;99.90;;;;;;5001720;28;20085;-79
2023/05/29 00:35:53;;;;;;;17.27;3.55;;;8.90;99.90;;;;;;4986744;28;20033;-79
2023/05/29 00:38:19;;;;;;;19.98;3.70;;;8.80;99.90;;;;;;4983320;28;20607;-79
2023/05/29 00:40:45;;;;;;;19.02;4.18;;;8.80;99.90;;;;;;5005753;28;20117;-79
2023/05/29 00:43:11;;;;;;;17.92;4.13;;;8.80;99.90;;;;;;4979420;28;20117;-80
2023/05/29 00:45:36;;;;;;;18.50;4.63;;;8.70;99.90;;;;;;4991617;28;20505;-79
2023/05/29 00:48:03;;;;;;;14.57;4.47;;;8.70;99.90;;;;;;4986573;28;20513;-80
2023/05/29 00:50:30;;;;;;;24.67;4.68;;;8.70;99.90;;;;;;4997330;28;20585;-80
2023/05/29 00:52:56;;;;;;;14.23;3.72;;;8.60;99.90;;;;;;4977624;28;20055;-80
2023/05/29 00:55:23;;;;;;;18.90;3.95;;;8.60;99.90;;;;;;4989034;28;20045;-80
2023/05/29 00:57:49;;;;;;;24.10;5.10;;;8.60;99.90;;;;;;5004750;28;20445;-80
2023/05/29 01:00:15;;;;;;;24.00;5.15;;;8.60;99.90;;;;;;4996306;28;20041;-79
2023/05/29 01:02:44;;;;;;;13.65;3.75;;;8.50;99.90;;;;;;4985352;28;20100;-80
2023/05/29 01:05:14;;;;;;;15.15;3.80;;;8.50;99.90;;;;;;4985149;28;20052;-80
2023/05/29 01:07:44;;;;;;;18.83;4.00;;;8.50;99.90;;;;;;4984013;28;20486;-80
2023/05/29 01:10:10;;;;;;;19.17;4.15;;;8.50;99.90;;;;;;5002966;28;20430;-80
2023/05/29 01:12:54;;;;;;;18.00;4.97;;;8.40;99.90;;;;;;5002547;28;20527;-80
2023/05/29 01:15:30;;;;;;;21.52;5.93;;;8.40;99.90;;;;;;4999282;28;20755;-80
2023/05/29 01:18:18;;;;;;;22.73;4.68;;;8.40;99.90;;;;;;5016034;28;20045;-80
2023/05/29 01:21:11;;;;;;;19.00;4.40;;;8.40;99.90;;;;;;5002983;28;21038;-80
2023/05/29 01:23:53;;;;;;;16.35;4.40;;;8.40;99.90;;;;;;5004317;28;20049;-80
2023/05/29 01:26:38;;;;;;;;;;;8.40;99.90;;;;;;5006387;28;20042;-80
2023/05/29 01:29:06;;;;;;;21.42;4.60;;;8.40;99.90;;;;;;4974043;28;20400;-80
2023/05/29 01:31:34;;;;;;;16.80;3.85;;;8.30;99.90;;;;;;4995034;28;20080;-80
2023/05/29 01:34:00;;;;;;;16.17;4.30;;;8.30;99.90;;;;;;5000213;28;20038;-80
2023/05/29 01:36:26;;;;;;;19.10;3.88;;;8.30;99.90;;;;;;5001990;28;20495;-80
2023/05/29 01:38:54;;;;;;;20.98;4.10;;;8.20;99.90;;;;;;4984678;28;20388;-80
2023/05/29 01:41:21;;;;;;;16.77;3.28;;;8.20;99.90;;;;;;5008824;28;20046;-80
2023/05/29 01:43:47;;;;;;;17.85;3.55;;;8.20;99.90;;;;;;4985076;28;20034;-80
2023/05/29 01:46:14;;;;;;;14.55;3.63;;;8.20;99.90;;;;;;4979984;28;20044;-80
2023/05/29 01:48:44;;;;;;;14.93;3.97;;;8.20;99.90;;;;;;4983583;28;20037;-80
2023/05/29 01:51:11;;;;;;;16.80;3.38;;;8.20;99.90;;;;;;4986415;28;20509;-80
2023/05/29 01:53:38;;;;;;;20.88;4.43;;;8.10;99.90;;;;;;5010262;28;20069;-80
2023/05/29 01:56:05;;;;;;;18.27;3.33;;;8.10;99.90;;;;;;5005373;28;20042;-78
2023/05/29 01:58:32;;;;;;;21.02;3.92;;;8.10;99.90;;;;;;4992185;28;20041;-80
2023/05/29 02:00:59;;;;;;;17.40;4.03;;;8.10;99.90;;;;;;4997622;28;20044;-80
2023/05/29 02:03:28;;;;;;;16.50;4.63;;;8.00;99.90;;;;;;4984631;28;20068;-80
2023/05/29 02:05:55;;;;;;;26.45;4.40;;;8.00;99.90;;;;;;4988915;28;20033;-80
2023/05/29 02:08:21;;;;;;;11.38;3.33;;;8.00;99.90;;;;;;5018822;28;20090;-80
2023/05/29 02:10:47;;;;;;;16.58;3.85;;;8.00;99.90;;;;;;4987293;28;20064;-80
2023/05/29 02:13:13;;;;;;;21.42;4.30;;;8.00;99.90;;;;;;4988299;28;20041;-80
2023/05/29 02:15:38;;;;;;;17.02;4.47;;;7.90;99.90;;;;;;5003665;28;20092;-80
2023/05/29 02:18:04;;;;;;;19.90;3.83;;;7.90;99.90;;;;;;4997146;28;20499;-80
2023/05/29 02:20:30;;;;;;;19.52;3.45;;;7.90;99.90;;;;;;4999821;28;20061;-80
2023/05/29 02:22:55;;;;;;;16.60;3.70;;;7.90;99.90;;;;;;4979323;28;20045;-81
2023/05/29 02:25:21;;;;;;;15.63;3.55;;;7.90;99.90;;;;;;4991167;28;20057;-80
2023/05/29 02:27:47;;;;;;;14.05;3.20;;;7.90;99.90;;;;;;5001694;28;20041;-80
2023/05/29 02:30:12;;;;;;;14.80;3.83;;;7.80;99.90;;;;;;5024366;28;20041;-80
2023/05/29 02:32:38;;;;;;;16.55;3.55;;;7.80;99.90;;;;;;4969631;28;20546;-80
2023/05/29 02:35:04;;;;;;;13.02;4.00;;;7.80;99.90;;;;;;5005054;28;20036;-80
2023/05/29 02:37:30;;;;;;;16.95;3.88;;;7.70;99.90;;;;;;4964444;28;20053;-80
2023/05/29 02:39:56;;;;;;;21.98;4.50;;;7.70;99.90;;;;;;4993893;28;20113;-80
2023/05/29 02:42:21;;;;;;;22.25;4.70;;;7.70;99.90;;;;;;4969918;28;20029;-80
2023/05/29 02:44:47;;;;;;;18.60;4.32;;;7.70;99.90;;;;;;5023832;28;20615;-80
2023/05/29 02:47:13;;;;;;;16.23;4.35;;;7.70;99.90;;;;;;4981227;28;20065;-79
2023/05/29 02:49:39;;;;;;;21.90;5.05;;;7.60;99.90;;;;;;4966617;28;20078;-80
2023/05/29 02:52:05;;;;;;;20.38;3.97;;;7.60;99.90;;;;;;4980556;28;20041;-80
2023/05/29 02:54:31;;;;;;;15.70;4.10;;;7.60;99.90;;;;;;4985037;28;20065;-80
2023/05/29 02:56:56;;;;;;;22.10;4.82;;;7.60;99.90;;;;;;4985793;28;20064;-80
2023/05/29 02:59:22;;;;;;;17.98;3.75;;;7.60;99.90;;;;;;4995807;28;20045;-80
2023/05/29 03:01:48;;;;;;;15.02;4.13;;;7.50;99.90;;;;;;4978155;28;20046;-80
2023/05/29 03:04:14;;;;;;;19.35;3.90;;;7.50;99.90;;;;;;5006541;28;20045;-80
2023/05/29 03:06:41;;;;;;;18.58;4.15;;;7.50;99.90;;;;;;5007727;28;20038;-80
2023/05/29 03:09:06;;;;;;;20.10;4.00;;;7.50;99.90;;;;;;4975477;28;20515;-80
2023/05/29 03:11:32;;;;;;;18.00;4.80;;;7.50;99.90;;;;;;5007246;28;20080;-80
2023/05/29 03:13:58;;;;;;;18.10;3.80;;;7.40;99.90;;;;;;5009043;28;20038;-79
2023/05/29 03:16:25;;;;;;;16.00;3.60;;;7.50;99.90;;;;;;5007318;28;20030;-79
2023/05/29 03:18:51;;;;;;;20.95;3.90;;;7.50;99.90;;;;;;5020172;28;20045;-80
2023/05/29 03:21:17;;;;;;;17.50;4.28;;;7.40;99.90;;;;;;4977265;28;20434;-80
2023/05/29 03:23:43;;;;;;;18.95;4.05;;;7.40;99.90;;;;;;4995101;28;20044;-80
2023/05/29 03:26:08;;;;;;;14.73;4.13;;;7.40;99.90;;;;;;4968868;28;20046;-80
2023/05/29 03:28:34;;;;;;;18.95;4.72;;;7.40;99.90;;;;;;4975874;28;20034;-80
2023/05/29 03:31:00;;;;;;;20.10;3.80;;;7.40;99.90;;;;;;5027265;28;20475;-80
2023/05/29 03:33:26;;;;;;;18.15;4.50;;;7.40;99.90;;;;;;4994194;28;20078;-80
2023/05/29 03:35:51;;;;;;;16.85;4.10;;;7.40;99.90;;;;;;4994685;28;20049;-80
2023/05/29 03:38:17;;;;;;;13.50;4.22;;;7.40;99.90;;;;;;4995376;28;20037;-79
2023/05/29 03:40:43;;;;;;;10.48;3.58;;;7.40;99.90;;;;;;5010859;28;20045;-80
2023/05/29 03:43:08;;;;;;;17.80;4.05;;;7.40;99.90;;;;;;5022139;28;20041;-80
2023/05/29 03:45:34;;;;;;;12.80;3.88;;;7.40;99.90;;;;;;4979396;28;20487;-79
2023/05/29 03:48:00;;;;;;;15.07;3.85;;;7.40;99.90;;;;;;4977217;28;20046;-79
2023/05/29 03:50:26;;;;;;;22.20;4.03;;;7.40;99.90;;;;;;5028192;28;20073;-79
2023/05/29 03:52:51;;;;;;;26.52;4.90;;;7.40;99.90;;;;;;4989843;28;20030;-78
2023/05/29 03:55:17;;;;;;;25.42;4.57;;;7.30;99.90;;;;;;5011350;28;20055;-80
2023/05/29 03:57:43;;;;;;;20.65;3.90;;;7.30;99.90;;;;;;4991542;28;20074;-80
2023/05/29 04:00:11;;;;;;;22.92;4.97;;;7.40;99.90;;;;;;5010218;28;20092;-79
2023/05/29 04:02:40;;;;;;;16.80;4.63;;;7.40;99.90;;;;;;5014022;28;20466;-79
2023/05/29 04:05:07;;;;;;;18.77;4.85;;;7.40;99.90;;;;;;4977972;28;20097;-80
2023/05/29 04:07:39;;;;;;;18.00;4.47;;;7.40;99.90;;;;;;5008231;28;20091;-80
2023/05/29 04:10:06;;;;;;;12.02;4.18;;;7.40;99.90;;;;;;5003241;28;20045;-79
2023/05/29 04:12:32;;;;;;;12.90;3.47;;;7.40;99.90;;;;;;4977274;28;20503;-79
2023/05/29 04:14:58;;;;;;;19.85;4.05;;;7.40;99.90;;;;;;4986363;28;20038;-79
2023/05/29 04:17:24;;;;;;;17.25;3.70;;;7.40;99.90;;;;;;4994566;28;20730;-80
2023/05/29 04:19:50;;;;;;;16.50;3.85;;;7.40;99.90;;;;;;4993877;28;20049;-80
2023/05/29 04:22:16;;;;;;;16.25;4.45;;;7.50;99.90;;;;;;4992202;28;20041;-79
2023/05/29 04:24:42;;;;;;;16.83;4.50;;;7.60;99.90;;;;;;4992564;28;20054;-80
2023/05/29 04:27:11;;;;;;;18.13;3.55;;;7.50;99.90;;;;;;5011071;28;20541;-80
2023/05/29 04:29:40;;;;;;;15.70;4.35;;;7.50;99.90;;;;;;5005791;28;20101;-80
2023/05/29 04:32:06;;;;;;;20.20;4.10;;;7.60;99.90;;;;;;4992751;28;20042;-80
2023/05/29 04:34:32;;;;;;;15.88;3.70;;;7.60;99.90;;;;;;5000048;28;20470;-80
2023/05/29 04:36:58;;;;;;;16.92;3.92;;;7.60;99.90;;;;;;5010143;28;20640;-80
2023/05/29 04:39:24;;;;;;;20.73;4.55;;;7.70;99.90;;;;;;5016606;28;20065;-80
2023/05/29 04:41:51;;;;;;;19.40;3.80;;;7.70;99.90;;;;;;4979672;28;20038;-85
2023/05/29 04:44:17;;;;;;;15.18;3.75;;;7.80;99.90;;;;;;5008529;28;20793;-81
2023/05/29 04:46:44;;;;;;;20.77;4.32;;;7.80;99.90;;;;;;4960525;28;20053;-81
2023/05/29 04:49:11;;;;;;;13.93;4.72;;;7.90;99.90;;;;;;4977200;28;20038;-79
2023/05/29 04:51:40;;;;;;;17.20;3.80;;;7.90;99.90;;;;;;4999541;28;20038;-80
2023/05/29 04:54:10;;;;;;;13.30;3.95;;;8.00;99.90;;;;;;4977711;28;20073;-81
2023/05/29 04:56:36;;;;;;;14.75;3.50;;;8.00;99.90;;;;;;4988300;28;20038;-80
2023/05/29 04:59:02;;;;;;;16.23;3.67;;;8.10;99.90;;;;;;4993201;28;20407;-81
2023/05/29 05:01:28;;;;;;;11.10;3.50;;;8.20;99.90;;;;;;4984800;28;20041;-80
2023/05/29 05:03:57;;;;;;;13.05;3.67;;;8.30;99.90;;;;;;4994922;28;20037;-81
2023/05/29 05:06:25;;;;;;;21.58;3.95;;;8.40;99.90;;;;;;5008552;28;20038;-81
2023/05/29 05:08:51;;;;;;;13.82;3.80;;;8.50;99.90;;;;;;5007930;28;20129;-81
2023/05/29 05:11:18;;;;;;;14.80;4.15;;;8.60;99.90;;;;;;4985168;28;20068;-80
2023/05/29 05:13:44;;;;;;;16.95;3.20;;;8.70;99.90;;;;;;4977920;28;20045;-80
2023/05/29 05:16:10;;;;;;;15.05;4.00;;;8.80;99.90;;;;;;5008665;28;20030;-80
2023/05/29 05:18:36;;;;;;;10.90;4.03;;;8.90;99.90;;;;;;5008209;28;20045;-81
2023/05/29 05:21:05;;;;;;;17.75;3.70;;;9.00;99.90;;;;;;4990041;28;20125;-80
2023/05/29 05:23:31;;;;;;;21.13;4.18;;;9.10;99.90;;;;;;5008193;28;20132;-80
2023/05/29 05:25:57;;;;;;;15.68;3.45;;;9.30;99.90;;;;;;5009348;28;20089;-80
2023/05/29 05:28:22;;;;;;;10.25;2.85;;;9.40;99.90;;;;;;4978056;28;20463;-81
2023/05/29 05:30:48;;;;;;;15.32;3.42;;;9.40;99.90;;;;;;4993036;28;20050;-80
2023/05/29 05:33:14;;;;;;;14.93;4.30;;;9.50;99.90;;;;;;4992001;28;20034;-81
2023/05/29 05:35:40;;;;;;;11.35;3.30;;;9.60;99.90;;;;;;4988395;28;20041;-81
2023/05/29 05:38:06;;;;;;;17.85;4.03;;;9.70;99.90;;;;;;4995607;28;20056;-80
2023/05/29 05:40:32;;;;;;;18.50;3.75;;;9.70;99.90;;;;;;5020738;28;20038;-80
2023/05/29 05:43:01;;;;;;;10.45;2.72;;;9.80;99.90;;;;;;5019624;28;20046;-81
2023/05/29 05:45:26;;;;;;;18.52;4.47;;;9.90;99.90;;;;;;4995347;28;20088;-81
2023/05/29 05:47:52;;;;;;;13.63;3.05;;;10.00;99.90;;;;;;5002787;28;20446;-80
2023/05/29 05:50:18;;;;;;;13.73;3.63;;;10.00;99.90;;;;;;5006313;28;20116;-80
2023/05/29 05:52:43;;;;;;;15.90;3.80;;;10.00;99.90;;;;;;5021387;28;20420;-81
2023/05/29 05:55:09;;;;;;;17.10;3.20;;;10.10;99.90;;;;;;4986360;28;20061;-81
2023/05/29 05:57:35;;;;;;;21.08;3.30;;;10.10;99.90;;;;;;4999833;28;20034;-82
2023/05/29 06:00:11;;;;;;;11.43;3.88;;;10.20;99.90;;;;;;5014034;28;20478;-81
2023/05/29 06:02:38;;;;;;;9.00;3.28;;;10.20;99.90;;;;;;4999609;28;20384;-82
2023/05/29 06:05:06;;;;;;;12.27;3.08;;;10.30;99.90;;;;;;5011584;28;20041;-81
2023/05/29 06:07:32;;;;;;;11.35;3.00;;;10.40;99.90;;;;;;4978444;28;20034;-82
2023/05/29 06:09:58;;;;;;;13.45;3.08;;;10.40;99.90;;;;;;4990390;28;20132;-82
2023/05/29 06:12:24;;;;;;;14.77;2.97;;;10.50;99.90;;;;;;4995622;28;20406;-81
2023/05/29 06:14:50;;;;;;;13.82;3.72;;;10.50;99.90;;;;;;4983335;28;20044;-81
2023/05/29 06:17:16;;;;;;;13.15;3.60;;;10.60;99.90;;;;;;5031044;28;20469;-81
2023/05/29 06:19:41;;;;;;;11.10;3.92;;;10.60;99.90;;;;;;4991952;28;20069;-81
2023/05/29 06:22:07;;;;;;;15.68;3.70;;;10.70;99.90;;;;;;4989446;28;20045;-81
2023/05/29 06:24:33;;;;;;;13.40;3.00;;;10.70;99.90;;;;;;4997573;28;20041;-80
2023/05/29 06:26:59;;;;;;;14.82;4.18;;;10.90;99.90;;;;;;4997373;28;20048;-81
2023/05/29 06:29:25;;;;;;;11.63;3.22;;;10.90;99.90;;;;;;4994833;28;20041;-82
2023/05/29 06:31:51;;;;;;;12.20;3.40;;;11.00;99.90;;;;;;5006166;28;20474;-81
2023/05/29 06:34:16;;;;;;;11.95;3.10;;;11.10;99.90;;;;;;5014077;28;20514;-81
2023/05/29 06:36:42;;;;;;;15.38;4.10;;;11.20;99.90;;;;;;5017585;28;20128;-82
2023/05/29 06:39:08;;;;;;;18.42;3.35;;;11.30;99.90;;;;;;4989549;28;20073;-82
2023/05/29 06:41:34;;;;;;;25.58;4.50;;;11.40;99.90;;;;;;5014664;28;20090;-82
2023/05/29 06:44:00;;;;;;;15.10;3.58;;;11.50;99.90;;;;;;5026981;28;20052;-82
2023/05/29 06:46:25;;;;;;;13.80;3.50;;;11.50;99.90;;;;;;5007035;28;20044;-82
2023/05/29 06:48:53;;;;;;;17.35;3.92;;;11.50;99.90;;;;;;5029549;28;20502;-82
2023/05/29 06:51:18;;;;;;;15.73;3.47;;;11.60;99.90;;;;;;4999263;28;20034;-82
2023/05/29 06:53:44;;;;;;;19.98;4.50;;;11.60;99.90;;;;;;4981975;28;20040;-82
2023/05/29 06:56:10;;;;;;;12.18;4.50;;;11.60;99.90;;;;;;4982920;28;20060;-82
2023/05/29 06:58:36;;;;;;;16.70;3.40;;;11.70;99.90;;;;;;4999860;28;20715;-81
2023/05/29 07:01:02;;;;;;;14.68;3.40;;;11.80;99.90;;;;;;5013095;28;20518;-82
2023/05/29 07:03:28;;;;;;;14.10;3.47;;;11.90;99.90;;;;;;4991278;28;20509;-82
2023/05/29 07:05:54;;;;;;;15.57;4.25;;;12.00;99.90;;;;;;4996775;28;20107;-82
2023/05/29 07:08:20;;;;;;;12.63;3.20;;;12.10;99.90;;;;;;5031156;28;20512;-82
2023/05/29 07:10:49;;;;;;;19.63;4.15;;;12.20;99.90;;;;;;4985111;28;20054;-82
2023/05/29 07:13:18;;;;;;;16.20;3.53;;;12.30;99.90;;;;;;4996039;28;20049;-82
2023/05/29 07:15:44;;;;;;;13.95;4.65;;;12.40;99.90;;;;;;5013539;28;20034;-81
2023/05/29 07:18:10;;;;;;;15.98;3.78;;;12.40;99.90;;;;;;5014844;28;20415;-83
2023/05/29 07:20:36;;;;;;;9.95;3.40;;;12.50;99.90;;;;;;5019220;28;20045;-83
2023/05/29 07:23:03;;;;;;;18.05;4.55;;;12.60;99.90;;;;;;4989318;28;20148;-82
2023/05/29 07:25:29;;;;;;;16.02;4.30;;;12.60;99.90;;;;;;4997934;28;20056;-82
2023/05/29 07:27:55;;;;;;;14.98;3.85;;;12.70;99.90;;;;;;4994186;28;20101;-84
2023/05/29 07:30:21;;;;;;;16.42;4.03;;;12.80;99.90;;;;;;4998273;28;20038;-82
2023/05/29 07:32:47;;;;;;;17.10;4.20;;;12.80;99.90;;;;;;4974082;28;20100;-82
2023/05/29 07:35:13;;;;;;;11.20;3.63;;;12.90;99.90;;;;;;4985651;28;20055;-82
2023/05/29 07:37:41;;;;;;;16.42;4.22;;;12.90;99.90;;;;;;5018255;28;20046;-82
2023/05/29 07:40:07;;;;;;;22.27;4.15;;;13.00;99.90;;;;;;4997907;28;20042;-82
2023/05/29 07:42:33;;;;;;;12.75;3.53;;;13.10;99.90;;;;;;5001942;28;20061;-82
2023/05/29 07:44:59;;;;;;;13.32;3.65;;;13.10;99.90;;;;;;5008479;28;20088;-81
2023/05/29 07:47:25;;;;;;;14.27;3.92;;;13.20;99.90;;;;;;4995336;28;20452;-81
2023/05/29 07:49:51;;;;;;;14.15;4.00;;;13.20;99.90;;;;;;4976793;28;20038;-81
2023/05/29 07:52:18;;;;;;;13.32;3.90;;;13.40;99.90;;;;;;4977766;28;20042;-81
2023/05/29 07:54:44;;;;;;;16.30;3.85;;;13.50;99.90;;;;;;4981719;28;20041;-80
2023/05/29 07:57:10;;;;;;;21.25;3.83;;;13.50;99.90;;;;;;5015293;28;20034;-82
2023/05/29 07:59:44;;;;;;;13.55;4.00;;;13.70;99.90;;;;;;4974526;28;20153;-82
2023/05/29 08:02:10;;;;;;;13.48;4.35;;;13.80;99.90;;;;;;4978932;28;20038;-82
2023/05/29 08:04:35;;;;;;;11.88;4.03;;;14.00;99.90;;;;;;5021891;28;20614;-82
2023/05/29 08:07:05;;;;;;;19.60;3.97;;;14.10;99.90;;;;;;5013097;28;20622;-84
2023/05/29 08:09:31;;;;;;;16.98;3.67;;;14.20;99.90;;;;;;4996650;28;20046;-82
2023/05/29 08:11:57;;;;;;;12.93;3.53;;;14.30;99.90;;;;;;5003216;28;20104;-83
2023/05/29 08:14:23;;;;;;;12.07;3.55;;;14.30;99.90;;;;;;4993522;28;20125;-83
2023/05/29 08:16:49;;;;;;;16.40;4.03;;;14.30;99.90;;;;;;4998603;28;20034;-83
2023/05/29 08:19:16;;;;;;;20.00;4.82;;;14.40;99.90;;;;;;5015848;28;20041;-83
2023/05/29 08:21:42;;;;;;;13.68;3.55;;;14.30;99.90;;;;;;5013970;28;20545;-82
2023/05/29 08:24:08;;;;;;;22.08;3.83;;;14.40;99.90;;;;;;5028413;28;20049;-82
2023/05/29 08:26:35;;;;;;;15.55;3.92;;;14.40;99.90;;;;;;5014168;28;20038;-83
2023/05/29 08:29:00;;;;;;;13.32;3.72;;;14.60;99.90;;;;;;4998654;28;20569;-83
2023/05/29 08:31:26;;;;;;;17.35;3.75;;;14.70;99.90;;;;;;4980423;28;20041;-83
2023/05/29 08:33:56;;;;;;;9.15;3.72;;;14.70;99.90;;;;;;4997515;28;20121;-82
2023/05/29 08:36:21;;;;;;;13.70;3.47;;;14.90;99.60;;;;;;5010245;28;20040;-83
2023/05/29 08:38:48;;;;;;;15.82;4.00;;;14.90;99.70;;;;;;5011943;28;20054;-81
2023/05/29 08:41:32;;;;;;;17.98;4.82;;;14.90;99.60;;;;;;4979445;28;20128;-82
2023/05/29 08:44:02;;;;;;;17.70;4.97;;;14.90;99.40;;;;;;5001829;28;20037;-78
2023/05/29 08:46:28;;;;;;;11.25;3.40;;;15.00;99.90;;;;;;5004192;28;20053;-80
2023/05/29 08:48:57;;;;;;;11.13;4.13;;;15.00;99.20;;;;;;4987557;28;20047;-80
2023/05/29 08:51:29;;;;;;;13.20;4.07;;;15.20;99.40;;;;;;4996579;28;20053;-79
2023/05/29 08:53:55;;;;;;;18.30;4.00;;;15.40;99.10;;;;;;4964785;28;20572;-78
2023/05/29 08:56:22;;;;;;;12.15;3.88;;;15.50;98.80;;;;;;4998412;28;20409;-79
2023/05/29 08:58:48;;;;;;;15.43;3.67;;;15.60;98.90;;;;;;5005109;28;20128;-78
2023/05/29 09:01:15;;;;;;;13.00;3.97;;;15.80;98.90;;;;;;4972943;28;20280;-78
2023/05/29 09:03:41;;;;;;;11.00;3.60;;;15.80;97.70;;;;;;4990079;28;20054;-79
2023/05/29 09:06:08;;;;;;;11.00;3.53;;;15.90;97.80;;;;;;4973680;28;20038;-78
2023/05/29 09:08:38;;;;;;;15.60;4.10;;;15.90;97.00;;;;;;4979565;28;20046;-79
2023/05/29 09:11:05;;;;;;;12.07;3.50;;;16.10;97.20;;;;;;4999675;28;20099;-78
2023/05/29 09:13:31;;;;;;;13.80;3.55;;;16.10;96.80;;;;;;5011205;28;20057;-78
2023/05/29 09:15:58;;;;;;;9.48;3.08;;;16.30;96.90;;;;;;4974571;28;20038;-79
2023/05/29 09:18:29;;;;;;;14.88;3.70;;;16.30;96.60;;;;;;4973183;28;20050;-78
2023/05/29 09:20:55;;;;;;;20.08;4.22;;;16.40;95.90;;;;;;4989284;28;20120;-78
2023/05/29 09:23:20;;;;;;;11.05;3.58;;;16.50;96.80;;;;;;4987338;28;20891;-77
2023/05/29 09:25:52;;;;;;;18.35;4.35;;;16.40;96.40;;;;;;4970509;28;20042;-78
2023/05/29 09:28:18;;;;;;;14.75;3.92;;;16.40;95.50;;;;;;4986690;28;20037;-78
2023/05/29 09:30:46;;;;;;;12.82;3.20;;;16.30;95.40;;;;;;4990686;28;20073;-77
2023/05/29 09:33:14;;;;;;;13.65;4.30;;;16.40;95.60;;;;;;5009053;28;20041;-78
2023/05/29 09:35:41;;;;;;;22.83;4.95;;;16.30;95.20;;;;;;4998250;28;20514;-78
2023/05/29 09:38:09;;;;;;;16.98;4.22;;;16.20;95.10;;;;;;4978156;28;20056;-78
2023/05/29 09:40:40;;;;;;;16.65;4.45;;;16.10;95.50;;;;;;4987566;28;20053;-79
2023/05/29 09:43:19;;;;;;;20.90;5.00;;;16.00;95.90;;;;;;4983005;28;20037;-79
2023/05/29 09:45:46;;;;;;;16.73;3.53;;;16.10;96.40;;;;;;4984363;28;20096;-79
2023/05/29 09:48:18;;;;;;;17.42;4.70;;;16.20;95.90;;;;;;4974872;28;20053;-78
2023/05/29 09:50:47;;;;;;;12.90;4.50;;;16.50;96.00;;;;;;4971309;28;20191;-78
2023/05/29 09:53:23;;;;;;;14.25;3.78;;;16.60;96.10;;;;;;4982105;28;20765;-78
2023/05/29 09:55:50;;;;;;;15.65;4.40;;;16.80;95.10;;;;;;4979093;28;20045;-78
2023/05/29 09:58:18;;;;;;;13.77;4.32;;;16.80;95.40;;;;;;4928702;28;20044;-78
2023/05/29 10:00:44;;;;;;;15.52;3.92;;;16.90;95.20;;;;;;4978482;28;20084;-78
2023/05/29 10:03:12;;;;;;;10.82;3.55;;;17.00;94.40;;;;;;4980384;28;20048;-78
2023/05/29 10:05:43;;;;;;;15.32;4.20;;;17.00;93.50;;;;;;4983854;28;20049;-79
2023/05/29 10:08:12;;;;;;;14.88;4.03;;;17.20;93.80;;;;;;4971629;28;20045;-79
2023/05/29 10:10:43;;;;;;;18.77;4.78;;;17.20;94.00;;;;;;4985456;28;20070;-79
2023/05/29 10:13:13;;;;;;;11.32;3.67;;;17.10;94.20;;;;;;4992188;28;20504;-79
2023/05/29 10:15:45;;;;;;;10.82;3.88;;;17.10;94.30;;;;;;4977335;28;20092;-79
2023/05/29 10:18:21;;;;;;;10.75;3.53;;;17.20;93.90;;;;;;4973469;28;20034;-79
2023/05/29 10:20:52;;;;;;;15.13;4.15;;;17.20;94.40;;;;;;5010819;28;20494;-79
2023/05/29 10:23:22;;;;;;;16.48;4.00;;;17.10;93.90;;;;;;4992161;28;20373;-79
2023/05/29 10:25:52;;;;;;;17.25;4.00;;;17.30;94.70;;;;;;4972604;28;20038;-78
2023/05/29 10:28:18;;;;;;;14.93;3.53;;;17.30;94.30;;;;;;4990424;28;21162;-78
2023/05/29 10:30:49;;;;;;;19.30;3.65;;;17.60;94.30;;;;;;4974560;28;20046;-79
2023/05/29 10:33:26;;;;;;;10.88;3.90;;;17.60;93.20;;;;;;4990920;28;20206;-79
2023/05/29 10:35:59;;;;;;;13.00;3.30;;;17.70;93.10;;;;;;4993505;28;20041;-79
2023/05/29 10:38:26;;;;;;;11.75;3.47;;;17.70;92.80;;;;;;5002161;28;20049;-80
2023/05/29 10:40:52;;;;;;;13.75;3.80;;;17.80;93.30;;;;;;4997501;28;20134;-79
2023/05/29 10:43:34;;;;;;;14.98;3.60;;;18.10;94.00;;;;;;4994640;28;20079;-79
2023/05/29 10:46:01;;;;;;;;;;;18.20;92.30;;;;;;5010297;28;20063;-79
2023/05/29 10:48:29;;;;;;;16.25;4.07;;;18.00;91.70;;;;;;4995648;28;20000;-79
2023/05/29 10:50:56;;;;;;;16.52;3.70;;;18.00;92.50;;;;;;4992744;28;20410;-79
2023/05/29 10:53:30;;;;;;;13.02;3.47;;;17.90;92.70;;;;;;5008532;28;20041;-81
2023/05/29 10:55:56;;;;;;;13.13;3.25;;;17.80;91.90;;;;;;5013015;28;20183;-80
2023/05/29 10:58:24;;;;;;;12.15;4.18;;;17.80;92.80;;;;;;5002584;28;20704;-79
2023/05/29 11:00:50;;;;;;;14.23;4.00;;;18.00;92.80;;;;;;5019894;28;20045;-79
2023/05/29 11:03:22;;;;;;;17.45;4.50;;;18.10;92.50;;;;;;4976918;28;20037;-79
2023/05/29 11:05:57;;;;;;;9.32;3.58;;;18.00;92.30;;;;;;5008471;28;20040;-79
2023/05/29 11:08:55;;;;;;;13.75;3.90;;;18.10;91.90;;;;;;5008412;28;20092;-79
2023/05/29 11:11:27;;;;;;;14.60;4.03;;;18.00;92.20;;;;;;4995388;28;20042;-80
2023/05/29 11:13:54;;;;;;;10.55;3.03;;;18.00;91.70;;;;;;5008829;28;20038;-79
2023/05/29 11:16:29;;;;;;;9.75;3.55;;;18.00;91.00;;;;;;4992630;28;20036;-80
2023/05/29 11:18:55;;;;;;;13.60;4.00;;;17.90;90.60;;;;;;4993032;28;20045;-79
2023/05/29 11:21:46;;;;;;;12.20;4.03;;;18.10;91.50;;;;;;4995151;28;20139;-80
2023/05/29 11:24:23;;;;;;;18.25;3.80;;;18.20;91.00;;;;;;5001454;28;20068;-79
2023/05/29 11:26:51;;;;;;;25.75;3.53;;;18.20;90.70;;;;;;5008577;28;20042;-79
2023/05/29 11:29:22;;;;;;;10.98;3.22;;;18.10;90.20;;;;;;4991591;28;20128;-79
2023/05/29 11:31:49;;;;;;;11.10;3.40;;;18.00;90.20;;;;;;5011842;28;20412;-79
2023/05/29 11:34:15;;;;;;;15.38;3.92;;;18.00;89.10;;;;;;4996890;28;20158;-79
2023/05/29 11:36:43;;;;;;;12.27;4.00;;;18.00;90.20;;;;;;5002635;28;20045;-79
2023/05/29 11:39:09;;;;;;;12.85;3.70;;;18.20;90.70;;;;;;4995661;28;20048;-79
2023/05/29 11:41:35;;;;;;;12.23;3.33;;;18.20;90.70;;;;;;4976333;28;20057;-79
2023/05/29 11:44:03;;;;;;;11.38;3.67;;;18.10;90.20;;;;;;5002412;28;20038;-79
2023/05/29 11:46:32;;;;;;;16.65;3.92;;;18.10;90.70;;;;;;5030546;28;20647;-79
2023/05/29 11:48:59;;;;;;;12.38;3.70;;;18.20;91.00;;;;;;5009653;28;20045;-79
2023/05/29 11:51:25;;;;;;;15.80;3.55;;;18.30;90.50;;;;;;4999422;28;20045;-80
2023/05/29 11:53:53;;;;;;;14.02;3.88;;;18.30;90.20;;;;;;4998696;28;20034;-80
2023/05/29 11:56:19;;;;;;;14.75;3.50;;;18.30;90.40;;;;;;5009956;28;20443;-80
2023/05/29 11:58:45;;;;;;;14.35;4.10;;;18.30;90.20;;;;;;5002176;28;20046;-80
2023/05/29 12:01:11;;;;;;;12.00;3.92;;;18.30;90.40;;;;;;5016138;28;20041;-79
2023/05/29 12:03:41;;;;;;;15.20;4.05;;;18.40;91.70;;;;;;5009811;28;20406;-80
2023/05/29 12:06:08;;;;;;;11.65;3.38;;;18.50;90.70;;;;;;5012709;28;20045;-79
2023/05/29 12:08:35;;;;;;;12.50;3.20;;;18.60;88.90;;;;;;5008534;28;20568;-80
2023/05/29 12:11:00;;;;;;;14.75;3.95;;;18.70;89.30;;;;;;4989596;28;20042;-79
2023/05/29 12:13:26;;;;;;;18.92;3.85;;;18.70;90.00;;;;;;5008653;28;20514;-79
2023/05/29 12:15:58;;;;;;;11.52;3.28;;;18.80;89.30;;;;;;4990624;28;20578;-80
2023/05/29 12:18:25;;;;;;;12.77;3.75;;;18.90;88.20;;;;;;5002960;28;20041;-79
2023/05/29 12:20:51;;;;;;;19.02;4.35;;;18.90;89.20;;;;;;5026928;28;20045;-79
2023/05/29 12:23:21;;;;;;;12.50;3.25;;;18.90;90.00;;;;;;5010148;28;20057;-80
2023/05/29 12:25:46;;;;;;;11.93;3.40;;;18.70;88.10;;;;;;4991634;28;20041;-80
2023/05/29 12:28:18;;;;;;;13.07;4.30;;;18.70;88.00;;;;;;5017942;28;20474;-79
2023/05/29 12:30:49;;;;;;;10.65;3.42;;;18.60;90.00;;;;;;5011499;28;20042;-79
2023/05/29 12:33:28;;;;;;;8.02;3.53;;;18.90;90.60;;;;;;5000906;28;20046;-79
2023/05/29 12:35:54;;;;;;;12.07;3.45;;;18.70;85.90;;;;;;5002507;28;20450;-80
2023/05/29 12:38:22;;;;;;;16.65;3.13;;;18.70;85.60;;;;;;4979534;28;20098;-79
2023/05/29 12:40:49;;;;;;;12.38;3.67;;;18.70;86.90;;;;;;5024133;28;20487;-79
2023/05/29 12:43:16;;;;;;;10.32;3.55;;;18.60;88.60;;;;;;4986797;28;20049;-78
2023/05/29 12:45:42;;;;;;;17.67;3.58;;;18.70;89.50;;;;;;5017330;28;20446;-79